sensor_id;sensor_type;location;lat;lon;timestamp;P1;durP1;ratioP1;P2;durP2;ratioP2
11016;SDS011;54687;50.800;6.772;2024-03-29T00:00:56;3.78;;;2.08;;
11016;SDS011;54687;50.800;6.772;2024-03-29T00:03:22;3.42;;;1.75;;
11016;SDS011;54687;50.800;6.772;2024-03-29T00:05:47;2.83;;;1.85;;
11016;SDS011;54687;50.800;6.772;2024-03-29T00:08:13;3.72;;;1.98;;
11016;SDS011;54687;50.800;6.772;2024-03-29T00:10:40;2.83;;;1.67;;
11016;SDS011;54687;50.800;6.772;2024-03-29T00:13:06;3.88;;;1.95;;
11016;SDS011;54687;50.800;6.772;2024-03-29T00:15:32;3.50;;;1.90;;
11016;SDS011;54687;50.800;6.772;2024-03-29T00:17:58;2.40;;;1.50;;
11016;SDS011;54687;50.800;6.772;2024-03-29T00:20:23;3.92;;;1.70;;
11016;SDS011;54687;50.800;6.772;2024-03-29T00:22:49;3.67;;;1.85;;
11016;SDS011;54687;50.800;6.772;2024-03-29T00:25:15;2.70;;;1.83;;
11016;SDS011;54687;50.800;6.772;2024-03-29T00:27:42;3.15;;;1.70;;
11016;SDS011;54687;50.800;6.772;2024-03-29T00:30:09;2.08;;;1.58;;
11016;SDS011;54687;50.800;6.772;2024-03-29T00:32:35;2.00;;;1.60;;
11016;SDS011;54687;50.800;6.772;2024-03-29T00:35:00;3.85;;;1.90;;
11016;SDS011;54687;50.800;6.772;2024-03-29T00:37:26;3.53;;;1.70;;
11016;SDS011;54687;50.800;6.772;2024-03-29T00:39:54;2.83;;;1.58;;
11016;SDS011;54687;50.800;6.772;2024-03-29T00:42:20;2.65;;;1.50;;
11016;SDS011;54687;50.800;6.772;2024-03-29T00:44:47;2.95;;;1.35;;
11016;SDS011;54687;50.800;6.772;2024-03-29T00:47:13;2.95;;;1.50;;
11016;SDS011;54687;50.800;6.772;2024-03-29T00:49:39;2.05;;;1.60;;
11016;SDS011;54687;50.800;6.772;2024-03-29T00:52:05;3.35;;;1.50;;
11016;SDS011;54687;50.800;6.772;2024-03-29T00:54:30;2.80;;;1.80;;
11016;SDS011;54687;50.800;6.772;2024-03-29T00:56:57;7.10;;;1.80;;
11016;SDS011;54687;50.800;6.772;2024-03-29T00:59:22;2.65;;;1.58;;
11016;SDS011;54687;50.800;6.772;2024-03-29T01:01:50;4.55;;;1.85;;
11016;SDS011;54687;50.800;6.772;2024-03-29T01:04:16;4.68;;;1.55;;
11016;SDS011;54687;50.800;6.772;2024-03-29T01:06:42;3.83;;;1.40;;
11016;SDS011;54687;50.800;6.772;2024-03-29T01:09:08;3.30;;;1.70;;
11016;SDS011;54687;50.800;6.772;2024-03-29T01:11:34;5.07;;;1.45;;
11016;SDS011;54687;50.800;6.772;2024-03-29T01:14:00;3.85;;;1.90;;
11016;SDS011;54687;50.800;6.772;2024-03-29T01:16:26;1.92;;;1.30;;
11016;SDS011;54687;50.800;6.772;2024-03-29T01:18:56;1.92;;;1.50;;
11016;SDS011;54687;50.800;6.772;2024-03-29T01:21:26;4.28;;;2.10;;
11016;SDS011;54687;50.800;6.772;2024-03-29T01:23:54;3.22;;;1.90;;
11016;SDS011;54687;50.800;6.772;2024-03-29T01:26:23;4.97;;;2.10;;
11016;SDS011;54687;50.800;6.772;2024-03-29T01:28:51;4.63;;;2.33;;
11016;SDS011;54687;50.800;6.772;2024-03-29T01:31:19;3.00;;;1.85;;
11016;SDS011;54687;50.800;6.772;2024-03-29T01:33:47;4.05;;;1.80;;
11016;SDS011;54687;50.800;6.772;2024-03-29T01:36:15;4.05;;;1.60;;
11016;SDS011;54687;50.800;6.772;2024-03-29T01:38:43;3.13;;;1.55;;
11016;SDS011;54687;50.800;6.772;2024-03-29T01:41:12;3.42;;;1.67;;
11016;SDS011;54687;50.800;6.772;2024-03-29T01:43:39;2.53;;;1.77;;
11016;SDS011;54687;50.800;6.772;2024-03-29T01:46:09;3.55;;;2.15;;
11016;SDS011;54687;50.800;6.772;2024-03-29T01:48:38;3.85;;;2.08;;
11016;SDS011;54687;50.800;6.772;2024-03-29T01:51:04;3.58;;;2.25;;
11016;SDS011;54687;50.800;6.772;2024-03-29T01:53:36;4.05;;;2.17;;
11016;SDS011;54687;50.800;6.772;2024-03-29T01:56:05;3.63;;;2.20;;
11016;SDS011;54687;50.800;6.772;2024-03-29T01:58:36;2.35;;;1.88;;
11016;SDS011;54687;50.800;6.772;2024-03-29T02:01:05;2.75;;;1.75;;
11016;SDS011;54687;50.800;6.772;2024-03-29T02:03:39;3.03;;;1.48;;
11016;SDS011;54687;50.800;6.772;2024-03-29T02:06:08;4.03;;;1.80;;
11016;SDS011;54687;50.800;6.772;2024-03-29T02:08:42;3.65;;;2.00;;
11016;SDS011;54687;50.800;6.772;2024-03-29T02:11:09;3.08;;;1.50;;
11016;SDS011;54687;50.800;6.772;2024-03-29T02:13:37;4.25;;;1.90;;
11016;SDS011;54687;50.800;6.772;2024-03-29T02:16:06;3.60;;;2.58;;
11016;SDS011;54687;50.800;6.772;2024-03-29T02:18:35;3.15;;;1.73;;
11016;SDS011;54687;50.800;6.772;2024-03-29T02:21:05;5.50;;;2.38;;
11016;SDS011;54687;50.800;6.772;2024-03-29T02:23:33;4.75;;;1.83;;
11016;SDS011;54687;50.800;6.772;2024-03-29T02:26:04;3.80;;;1.88;;
11016;SDS011;54687;50.800;6.772;2024-03-29T02:28:31;2.47;;;1.90;;
11016;SDS011;54687;50.800;6.772;2024-03-29T02:30:58;5.25;;;1.92;;
11016;SDS011;54687;50.800;6.772;2024-03-29T02:33:24;2.70;;;1.75;;
11016;SDS011;54687;50.800;6.772;2024-03-29T02:35:51;2.58;;;1.67;;
11016;SDS011;54687;50.800;6.772;2024-03-29T02:38:18;3.10;;;1.80;;
11016;SDS011;54687;50.800;6.772;2024-03-29T02:40:45;2.53;;;1.65;;
11016;SDS011;54687;50.800;6.772;2024-03-29T02:43:13;2.50;;;1.73;;
11016;SDS011;54687;50.800;6.772;2024-03-29T02:45:40;3.55;;;1.67;;
11016;SDS011;54687;50.800;6.772;2024-03-29T02:48:06;3.60;;;1.67;;
11016;SDS011;54687;50.800;6.772;2024-03-29T02:50:33;3.40;;;2.00;;
11016;SDS011;54687;50.800;6.772;2024-03-29T02:52:59;5.75;;;1.90;;
11016;SDS011;54687;50.800;6.772;2024-03-29T02:55:25;3.92;;;1.88;;
11016;SDS011;54687;50.800;6.772;2024-03-29T02:57:51;2.63;;;1.85;;
11016;SDS011;54687;50.800;6.772;2024-03-29T03:00:19;3.45;;;2.38;;
11016;SDS011;54687;50.800;6.772;2024-03-29T03:02:45;4.03;;;2.00;;
11016;SDS011;54687;50.800;6.772;2024-03-29T03:05:12;1.88;;;1.30;;
11016;SDS011;54687;50.800;6.772;2024-03-29T03:07:37;2.40;;;1.58;;
11016;SDS011;54687;50.800;6.772;2024-03-29T03:10:22;3.22;;;2.00;;
11016;SDS011;54687;50.800;6.772;2024-03-29T03:13:07;3.17;;;1.83;;
11016;SDS011;54687;50.800;6.772;2024-03-29T03:15:35;1.90;;;1.48;;
11016;SDS011;54687;50.800;6.772;2024-03-29T03:18:02;3.25;;;1.80;;
11016;SDS011;54687;50.800;6.772;2024-03-29T03:20:29;3.83;;;1.52;;
11016;SDS011;54687;50.800;6.772;2024-03-29T03:22:57;2.15;;;1.70;;
11016;SDS011;54687;50.800;6.772;2024-03-29T03:25:24;4.10;;;1.92;;
11016;SDS011;54687;50.800;6.772;2024-03-29T03:27:51;7.53;;;2.10;;
11016;SDS011;54687;50.800;6.772;2024-03-29T03:30:18;4.43;;;2.15;;
11016;SDS011;54687;50.800;6.772;2024-03-29T03:32:45;4.22;;;1.80;;
11016;SDS011;54687;50.800;6.772;2024-03-29T03:35:12;3.45;;;1.80;;
11016;SDS011;54687;50.800;6.772;2024-03-29T03:37:38;3.63;;;1.80;;
11016;SDS011;54687;50.800;6.772;2024-03-29T03:40:05;2.55;;;1.50;;
11016;SDS011;54687;50.800;6.772;2024-03-29T03:42:31;1.95;;;1.50;;
11016;SDS011;54687;50.800;6.772;2024-03-29T03:44:58;3.58;;;1.98;;
11016;SDS011;54687;50.800;6.772;2024-03-29T03:47:24;3.63;;;1.65;;
11016;SDS011;54687;50.800;6.772;2024-03-29T03:49:52;3.65;;;2.08;;
11016;SDS011;54687;50.800;6.772;2024-03-29T03:52:17;4.60;;;2.38;;
11016;SDS011;54687;50.800;6.772;2024-03-29T03:54:44;3.50;;;1.90;;
11016;SDS011;54687;50.800;6.772;2024-03-29T03:57:10;3.17;;;2.03;;
11016;SDS011;54687;50.800;6.772;2024-03-29T03:59:37;3.30;;;2.10;;
11016;SDS011;54687;50.800;6.772;2024-03-29T04:02:02;2.22;;;1.60;;
11016;SDS011;54687;50.800;6.772;2024-03-29T04:04:29;3.22;;;1.60;;
11016;SDS011;54687;50.800;6.772;2024-03-29T04:06:56;3.90;;;2.17;;
11016;SDS011;54687;50.800;6.772;2024-03-29T04:09:23;4.50;;;1.77;;
11016;SDS011;54687;50.800;6.772;2024-03-29T04:11:49;5.10;;;2.03;;
11016;SDS011;54687;50.800;6.772;2024-03-29T04:14:16;3.22;;;1.98;;
11016;SDS011;54687;50.800;6.772;2024-03-29T04:16:41;2.75;;;1.70;;
11016;SDS011;54687;50.800;6.772;2024-03-29T04:19:08;4.45;;;1.52;;
11016;SDS011;54687;50.800;6.772;2024-03-29T04:21:34;2.63;;;1.75;;
11016;SDS011;54687;50.800;6.772;2024-03-29T04:24:02;5.90;;;2.00;;
11016;SDS011;54687;50.800;6.772;2024-03-29T04:26:28;4.85;;;1.80;;
11016;SDS011;54687;50.800;6.772;2024-03-29T04:28:54;2.72;;;1.55;;
11016;SDS011;54687;50.800;6.772;2024-03-29T04:31:20;2.00;;;1.75;;
11016;SDS011;54687;50.800;6.772;2024-03-29T04:33:47;3.15;;;1.85;;
11016;SDS011;54687;50.800;6.772;2024-03-29T04:36:13;3.45;;;2.22;;
11016;SDS011;54687;50.800;6.772;2024-03-29T04:38:39;2.97;;;1.98;;
11016;SDS011;54687;50.800;6.772;2024-03-29T04:41:07;3.75;;;2.00;;
11016;SDS011;54687;50.800;6.772;2024-03-29T04:43:34;1.92;;;1.55;;
11016;SDS011;54687;50.800;6.772;2024-03-29T04:46:04;3.00;;;1.80;;
11016;SDS011;54687;50.800;6.772;2024-03-29T04:48:35;7.53;;;2.50;;
11016;SDS011;54687;50.800;6.772;2024-03-29T04:51:02;2.33;;;1.80;;
11016;SDS011;54687;50.800;6.772;2024-03-29T04:53:28;3.50;;;1.80;;
11016;SDS011;54687;50.800;6.772;2024-03-29T04:55:55;4.45;;;2.10;;
11016;SDS011;54687;50.800;6.772;2024-03-29T04:58:23;4.78;;;2.40;;
11016;SDS011;54687;50.800;6.772;2024-03-29T05:00:50;2.70;;;1.85;;
11016;SDS011;54687;50.800;6.772;2024-03-29T05:03:17;2.25;;;2.08;;
11016;SDS011;54687;50.800;6.772;2024-03-29T05:05:45;3.05;;;2.35;;
11016;SDS011;54687;50.800;6.772;2024-03-29T05:08:12;3.80;;;1.92;;
11016;SDS011;54687;50.800;6.772;2024-03-29T05:10:39;3.10;;;2.08;;
11016;SDS011;54687;50.800;6.772;2024-03-29T05:13:06;3.00;;;2.25;;
11016;SDS011;54687;50.800;6.772;2024-03-29T05:15:34;3.72;;;1.98;;
11016;SDS011;54687;50.800;6.772;2024-03-29T05:18:02;2.80;;;1.92;;
11016;SDS011;54687;50.800;6.772;2024-03-29T05:20:29;3.72;;;1.88;;
11016;SDS011;54687;50.800;6.772;2024-03-29T05:22:56;3.00;;;2.08;;
11016;SDS011;54687;50.800;6.772;2024-03-29T05:25:23;4.38;;;2.20;;
11016;SDS011;54687;50.800;6.772;2024-03-29T05:27:50;2.33;;;1.67;;
11016;SDS011;54687;50.800;6.772;2024-03-29T05:30:17;5.07;;;2.58;;
11016;SDS011;54687;50.800;6.772;2024-03-29T05:32:45;5.13;;;2.53;;
11016;SDS011;54687;50.800;6.772;2024-03-29T05:35:12;3.22;;;2.03;;
11016;SDS011;54687;50.800;6.772;2024-03-29T05:37:39;3.03;;;1.90;;
11016;SDS011;54687;50.800;6.772;2024-03-29T05:40:07;2.90;;;1.95;;
11016;SDS011;54687;50.800;6.772;2024-03-29T05:42:35;2.28;;;1.73;;
11016;SDS011;54687;50.800;6.772;2024-03-29T05:45:03;5.65;;;1.90;;
11016;SDS011;54687;50.800;6.772;2024-03-29T05:47:31;3.33;;;2.10;;
11016;SDS011;54687;50.800;6.772;2024-03-29T05:49:59;3.90;;;1.98;;
11016;SDS011;54687;50.800;6.772;2024-03-29T05:52:25;2.38;;;1.88;;
11016;SDS011;54687;50.800;6.772;2024-03-29T05:54:52;2.50;;;1.85;;
11016;SDS011;54687;50.800;6.772;2024-03-29T05:57:19;4.20;;;2.10;;
11016;SDS011;54687;50.800;6.772;2024-03-29T05:59:48;4.10;;;2.35;;
11016;SDS011;54687;50.800;6.772;2024-03-29T06:02:15;3.15;;;1.80;;
11016;SDS011;54687;50.800;6.772;2024-03-29T06:04:42;2.22;;;1.70;;
11016;SDS011;54687;50.800;6.772;2024-03-29T06:07:13;2.33;;;1.85;;
11016;SDS011;54687;50.800;6.772;2024-03-29T06:09:40;2.45;;;1.98;;
11016;SDS011;54687;50.800;6.772;2024-03-29T06:12:07;3.60;;;1.90;;
11016;SDS011;54687;50.800;6.772;2024-03-29T06:14:36;3.08;;;1.75;;
11016;SDS011;54687;50.800;6.772;2024-03-29T06:17:20;3.67;;;2.20;;
11016;SDS011;54687;50.800;6.772;2024-03-29T06:19:50;2.13;;;1.90;;
11016;SDS011;54687;50.800;6.772;2024-03-29T06:22:21;3.85;;;2.22;;
11016;SDS011;54687;50.800;6.772;2024-03-29T06:24:48;2.97;;;2.00;;
11016;SDS011;54687;50.800;6.772;2024-03-29T06:27:16;3.13;;;2.13;;
11016;SDS011;54687;50.800;6.772;2024-03-29T06:29:44;2.78;;;2.20;;
11016;SDS011;54687;50.800;6.772;2024-03-29T06:32:11;3.30;;;2.10;;
11016;SDS011;54687;50.800;6.772;2024-03-29T06:34:37;2.92;;;1.92;;
11016;SDS011;54687;50.800;6.772;2024-03-29T06:37:04;1.75;;;1.65;;
11016;SDS011;54687;50.800;6.772;2024-03-29T06:39:32;2.70;;;2.05;;
11016;SDS011;54687;50.800;6.772;2024-03-29T06:41:58;2.95;;;1.92;;
11016;SDS011;54687;50.800;6.772;2024-03-29T06:44:25;3.58;;;2.10;;
11016;SDS011;54687;50.800;6.772;2024-03-29T06:46:52;3.10;;;1.80;;
11016;SDS011;54687;50.800;6.772;2024-03-29T06:49:19;2.53;;;2.05;;
11016;SDS011;54687;50.800;6.772;2024-03-29T06:51:45;3.67;;;2.10;;
11016;SDS011;54687;50.800;6.772;2024-03-29T06:54:12;2.80;;;2.13;;
11016;SDS011;54687;50.800;6.772;2024-03-29T06:56:41;5.55;;;2.00;;
11016;SDS011;54687;50.800;6.772;2024-03-29T06:59:07;3.65;;;1.80;;
11016;SDS011;54687;50.800;6.772;2024-03-29T07:01:34;4.35;;;2.13;;
11016;SDS011;54687;50.800;6.772;2024-03-29T07:04:01;2.97;;;2.13;;
11016;SDS011;54687;50.800;6.772;2024-03-29T07:06:28;2.40;;;1.90;;
11016;SDS011;54687;50.800;6.772;2024-03-29T07:08:54;3.10;;;1.98;;
11016;SDS011;54687;50.800;6.772;2024-03-29T07:11:21;2.13;;;1.60;;
11016;SDS011;54687;50.800;6.772;2024-03-29T07:13:49;2.35;;;2.00;;
11016;SDS011;54687;50.800;6.772;2024-03-29T07:16:15;2.67;;;1.52;;
11016;SDS011;54687;50.800;6.772;2024-03-29T07:18:42;2.67;;;1.77;;
11016;SDS011;54687;50.800;6.772;2024-03-29T07:21:09;3.80;;;1.90;;
11016;SDS011;54687;50.800;6.772;2024-03-29T07:23:37;2.15;;;1.70;;
11016;SDS011;54687;50.800;6.772;2024-03-29T07:26:04;3.25;;;2.22;;
11016;SDS011;54687;50.800;6.772;2024-03-29T07:28:31;3.22;;;2.53;;
11016;SDS011;54687;50.800;6.772;2024-03-29T07:31:04;4.05;;;2.50;;
11016;SDS011;54687;50.800;6.772;2024-03-29T07:33:32;3.40;;;2.60;;
11016;SDS011;54687;50.800;6.772;2024-03-29T07:35:59;2.50;;;1.92;;
11016;SDS011;54687;50.800;6.772;2024-03-29T07:38:26;3.33;;;1.88;;
11016;SDS011;54687;50.800;6.772;2024-03-29T07:40:52;1.90;;;1.67;;
11016;SDS011;54687;50.800;6.772;2024-03-29T07:43:20;2.10;;;1.90;;
11016;SDS011;54687;50.800;6.772;2024-03-29T07:45:47;1.85;;;1.60;;
11016;SDS011;54687;50.800;6.772;2024-03-29T07:48:15;2.38;;;2.00;;
11016;SDS011;54687;50.800;6.772;2024-03-29T07:50:43;1.75;;;1.65;;
11016;SDS011;54687;50.800;6.772;2024-03-29T07:53:11;2.35;;;1.42;;
11016;SDS011;54687;50.800;6.772;2024-03-29T07:55:39;2.80;;;1.80;;
11016;SDS011;54687;50.800;6.772;2024-03-29T07:58:07;2.10;;;1.65;;
11016;SDS011;54687;50.800;6.772;2024-03-29T08:00:35;2.00;;;1.80;;
11016;SDS011;54687;50.800;6.772;2024-03-29T08:03:05;1.40;;;1.20;;
11016;SDS011;54687;50.800;6.772;2024-03-29T08:05:33;2.50;;;1.90;;
11016;SDS011;54687;50.800;6.772;2024-03-29T08:08:00;2.28;;;1.50;;
11016;SDS011;54687;50.800;6.772;2024-03-29T08:10:28;2.40;;;1.85;;
11016;SDS011;54687;50.800;6.772;2024-03-29T08:12:54;2.58;;;2.22;;
11016;SDS011;54687;50.800;6.772;2024-03-29T08:15:21;2.20;;;2.10;;
11016;SDS011;54687;50.800;6.772;2024-03-29T08:17:48;2.33;;;2.05;;
11016;SDS011;54687;50.800;6.772;2024-03-29T08:20:16;3.10;;;2.05;;
11016;SDS011;54687;50.800;6.772;2024-03-29T08:22:45;1.60;;;1.50;;
11016;SDS011;54687;50.800;6.772;2024-03-29T08:25:12;1.98;;;1.70;;
11016;SDS011;54687;50.800;6.772;2024-03-29T08:27:38;2.00;;;1.75;;
11016;SDS011;54687;50.800;6.772;2024-03-29T08:30:06;1.83;;;1.52;;
11016;SDS011;54687;50.800;6.772;2024-03-29T08:32:34;1.48;;;1.38;;
11016;SDS011;54687;50.800;6.772;2024-03-29T08:35:01;2.03;;;1.67;;
11016;SDS011;54687;50.800;6.772;2024-03-29T08:37:28;1.23;;;1.23;;
11016;SDS011;54687;50.800;6.772;2024-03-29T08:39:57;1.88;;;1.63;;
11016;SDS011;54687;50.800;6.772;2024-03-29T08:42:23;1.50;;;1.40;;
11016;SDS011;54687;50.800;6.772;2024-03-29T08:44:50;1.15;;;1.05;;
11016;SDS011;54687;50.800;6.772;2024-03-29T08:47:18;1.58;;;1.17;;
11016;SDS011;54687;50.800;6.772;2024-03-29T08:49:45;1.55;;;1.45;;
11016;SDS011;54687;50.800;6.772;2024-03-29T08:52:11;2.47;;;1.35;;
11016;SDS011;54687;50.800;6.772;2024-03-29T08:54:39;1.15;;;1.13;;
11016;SDS011;54687;50.800;6.772;2024-03-29T08:57:09;1.42;;;1.33;;
11016;SDS011;54687;50.800;6.772;2024-03-29T08:59:36;1.20;;;1.10;;
11016;SDS011;54687;50.800;6.772;2024-03-29T09:02:05;1.20;;;1.10;;
11016;SDS011;54687;50.800;6.772;2024-03-29T09:04:32;1.33;;;1.23;;
11016;SDS011;54687;50.800;6.772;2024-03-29T09:07:00;1.48;;;1.38;;
11016;SDS011;54687;50.800;6.772;2024-03-29T09:09:27;2.05;;;1.05;;
11016;SDS011;54687;50.800;6.772;2024-03-29T09:11:54;1.30;;;1.20;;
11016;SDS011;54687;50.800;6.772;2024-03-29T09:14:22;1.20;;;1.10;;
11016;SDS011;54687;50.800;6.772;2024-03-29T09:16:49;1.00;;;1.00;;
11016;SDS011;54687;50.800;6.772;2024-03-29T09:19:16;1.33;;;0.95;;
11016;SDS011;54687;50.800;6.772;2024-03-29T09:21:42;0.98;;;0.95;;
11016;SDS011;54687;50.800;6.772;2024-03-29T09:24:09;1.17;;;0.85;;
11016;SDS011;54687;50.800;6.772;2024-03-29T09:26:36;0.90;;;0.80;;
11016;SDS011;54687;50.800;6.772;2024-03-29T09:29:05;1.33;;;1.17;;
11016;SDS011;54687;50.800;6.772;2024-03-29T09:31:33;1.95;;;1.40;;
11016;SDS011;54687;50.800;6.772;2024-03-29T09:34:00;2.70;;;1.42;;
11016;SDS011;54687;50.800;6.772;2024-03-29T09:36:26;1.27;;;1.00;;
11016;SDS011;54687;50.800;6.772;2024-03-29T09:38:53;1.98;;;1.30;;
11016;SDS011;54687;50.800;6.772;2024-03-29T09:41:19;2.22;;;1.45;;
11016;SDS011;54687;50.800;6.772;2024-03-29T09:43:47;1.23;;;1.13;;
11016;SDS011;54687;50.800;6.772;2024-03-29T09:46:15;1.55;;;1.45;;
11016;SDS011;54687;50.800;6.772;2024-03-29T09:48:44;1.70;;;1.45;;
11016;SDS011;54687;50.800;6.772;2024-03-29T09:51:12;1.23;;;1.10;;
11016;SDS011;54687;50.800;6.772;2024-03-29T09:53:40;2.38;;;1.52;;
11016;SDS011;54687;50.800;6.772;2024-03-29T09:56:08;1.17;;;1.08;;
11016;SDS011;54687;50.800;6.772;2024-03-29T09:58:36;1.90;;;1.23;;
11016;SDS011;54687;50.800;6.772;2024-03-29T10:01:04;3.00;;;1.25;;
11016;SDS011;54687;50.800;6.772;2024-03-29T10:03:32;1.92;;;1.35;;
11016;SDS011;54687;50.800;6.772;2024-03-29T10:06:05;3.90;;;1.80;;
11016;SDS011;54687;50.800;6.772;2024-03-29T10:08:33;4.32;;;1.75;;
11016;SDS011;54687;50.800;6.772;2024-03-29T10:11:02;3.17;;;1.45;;
11016;SDS011;54687;50.800;6.772;2024-03-29T10:13:29;1.20;;;1.10;;
11016;SDS011;54687;50.800;6.772;2024-03-29T10:15:58;1.38;;;1.13;;
11016;SDS011;54687;50.800;6.772;2024-03-29T10:18:28;1.85;;;1.73;;
11016;SDS011;54687;50.800;6.772;2024-03-29T10:20:59;1.85;;;1.33;;
11016;SDS011;54687;50.800;6.772;2024-03-29T10:23:28;2.03;;;1.42;;
11016;SDS011;54687;50.800;6.772;2024-03-29T10:25:54;2.28;;;1.15;;
11016;SDS011;54687;50.800;6.772;2024-03-29T10:28:21;1.42;;;1.13;;
11016;SDS011;54687;50.800;6.772;2024-03-29T10:30:49;2.03;;;1.42;;
11016;SDS011;54687;50.800;6.772;2024-03-29T10:33:16;1.50;;;1.00;;
11016;SDS011;54687;50.800;6.772;2024-03-29T10:35:43;1.42;;;1.13;;
11016;SDS011;54687;50.800;6.772;2024-03-29T10:38:11;1.23;;;1.13;;
11016;SDS011;54687;50.800;6.772;2024-03-29T10:40:39;1.38;;;1.05;;
11016;SDS011;54687;50.800;6.772;2024-03-29T10:43:07;2.70;;;0.88;;
11016;SDS011;54687;50.800;6.772;2024-03-29T10:45:37;1.00;;;0.95;;
11016;SDS011;54687;50.800;6.772;2024-03-29T10:48:06;1.95;;;1.10;;
11016;SDS011;54687;50.800;6.772;2024-03-29T10:50:36;1.85;;;1.40;;
11016;SDS011;54687;50.800;6.772;2024-03-29T10:53:04;1.33;;;1.00;;
11016;SDS011;54687;50.800;6.772;2024-03-29T10:55:32;1.77;;;1.05;;
11016;SDS011;54687;50.800;6.772;2024-03-29T10:58:02;1.02;;;0.70;;
11016;SDS011;54687;50.800;6.772;2024-03-29T11:00:32;1.65;;;1.13;;
11016;SDS011;54687;50.800;6.772;2024-03-29T11:03:05;1.00;;;0.88;;
11016;SDS011;54687;50.800;6.772;2024-03-29T11:05:41;1.80;;;1.40;;
11016;SDS011;54687;50.800;6.772;2024-03-29T11:08:11;1.23;;;1.02;;
11016;SDS011;54687;50.800;6.772;2024-03-29T11:10:40;1.17;;;1.08;;
11016;SDS011;54687;50.800;6.772;2024-03-29T11:13:15;0.98;;;0.88;;
11016;SDS011;54687;50.800;6.772;2024-03-29T11:15:51;1.23;;;0.80;;
11016;SDS011;54687;50.800;6.772;2024-03-29T11:18:18;1.77;;;0.85;;
11016;SDS011;54687;50.800;6.772;2024-03-29T11:20:46;3.25;;;1.00;;
11016;SDS011;54687;50.800;6.772;2024-03-29T11:23:17;1.80;;;0.80;;
11016;SDS011;54687;50.800;6.772;2024-03-29T11:25:46;2.85;;;1.92;;
11016;SDS011;54687;50.800;6.772;2024-03-29T11:28:23;0.77;;;0.57;;
11016;SDS011;54687;50.800;6.772;2024-03-29T11:30:52;1.65;;;0.60;;
11016;SDS011;54687;50.800;6.772;2024-03-29T11:33:28;3.47;;;2.17;;
11016;SDS011;54687;50.800;6.772;2024-03-29T11:35:56;0.88;;;0.88;;
11016;SDS011;54687;50.800;6.772;2024-03-29T11:38:30;1.95;;;0.90;;
11016;SDS011;54687;50.800;6.772;2024-03-29T11:41:01;0.65;;;0.50;;
11016;SDS011;54687;50.800;6.772;2024-03-29T11:43:30;1.00;;;0.88;;
11016;SDS011;54687;50.800;6.772;2024-03-29T11:45:58;1.58;;;1.00;;
11016;SDS011;54687;50.800;6.772;2024-03-29T11:48:26;0.70;;;0.70;;
11016;SDS011;54687;50.800;6.772;2024-03-29T11:50:56;0.77;;;0.77;;
11016;SDS011;54687;50.800;6.772;2024-03-29T11:53:23;0.60;;;0.60;;
11016;SDS011;54687;50.800;6.772;2024-03-29T11:55:50;0.70;;;0.70;;
11016;SDS011;54687;50.800;6.772;2024-03-29T11:58:22;0.50;;;0.50;;
11016;SDS011;54687;50.800;6.772;2024-03-29T12:00:51;0.63;;;0.63;;
11016;SDS011;54687;50.800;6.772;2024-03-29T12:03:20;0.77;;;0.77;;
11016;SDS011;54687;50.800;6.772;2024-03-29T12:05:48;0.60;;;0.60;;
11016;SDS011;54687;50.800;6.772;2024-03-29T12:08:17;0.65;;;0.65;;
11016;SDS011;54687;50.800;6.772;2024-03-29T12:10:44;0.82;;;0.75;;
11016;SDS011;54687;50.800;6.772;2024-03-29T12:13:11;0.70;;;0.70;;
11016;SDS011;54687;50.800;6.772;2024-03-29T12:15:40;0.50;;;0.50;;
11016;SDS011;54687;50.800;6.772;2024-03-29T12:18:08;1.10;;;0.77;;
11016;SDS011;54687;50.800;6.772;2024-03-29T12:20:36;0.77;;;0.77;;
11016;SDS011;54687;50.800;6.772;2024-03-29T12:23:04;0.98;;;0.45;;
11016;SDS011;54687;50.800;6.772;2024-03-29T12:25:33;0.40;;;0.40;;
11016;SDS011;54687;50.800;6.772;2024-03-29T12:28:02;0.60;;;0.60;;
11016;SDS011;54687;50.800;6.772;2024-03-29T12:30:29;0.60;;;0.60;;
11016;SDS011;54687;50.800;6.772;2024-03-29T12:33:00;0.70;;;0.70;;
11016;SDS011;54687;50.800;6.772;2024-03-29T12:35:29;0.65;;;0.65;;
11016;SDS011;54687;50.800;6.772;2024-03-29T12:37:58;0.73;;;0.70;;
11016;SDS011;54687;50.800;6.772;2024-03-29T12:40:26;0.60;;;0.60;;
11016;SDS011;54687;50.800;6.772;2024-03-29T12:42:55;0.70;;;0.70;;
11016;SDS011;54687;50.800;6.772;2024-03-29T12:45:23;0.70;;;0.70;;
11016;SDS011;54687;50.800;6.772;2024-03-29T12:47:51;0.95;;;0.50;;
11016;SDS011;54687;50.800;6.772;2024-03-29T12:50:19;0.75;;;0.75;;
11016;SDS011;54687;50.800;6.772;2024-03-29T12:52:54;2.63;;;0.98;;
11016;SDS011;54687;50.800;6.772;2024-03-29T12:55:24;0.70;;;0.70;;
11016;SDS011;54687;50.800;6.772;2024-03-29T12:57:53;1.20;;;1.20;;
11016;SDS011;54687;50.800;6.772;2024-03-29T13:00:20;0.88;;;0.88;;
11016;SDS011;54687;50.800;6.772;2024-03-29T13:02:48;0.88;;;0.88;;
11016;SDS011;54687;50.800;6.772;2024-03-29T13:05:15;0.80;;;0.80;;
11016;SDS011;54687;50.800;6.772;2024-03-29T13:07:42;0.85;;;0.80;;
11016;SDS011;54687;50.800;6.772;2024-03-29T13:10:13;0.63;;;0.55;;
11016;SDS011;54687;50.800;6.772;2024-03-29T13:12:46;0.98;;;0.98;;
11016;SDS011;54687;50.800;6.772;2024-03-29T13:15:15;0.70;;;0.70;;
11016;SDS011;54687;50.800;6.772;2024-03-29T13:17:46;1.00;;;0.85;;
11016;SDS011;54687;50.800;6.772;2024-03-29T13:20:14;0.70;;;0.70;;
11016;SDS011;54687;50.800;6.772;2024-03-29T13:22:42;0.90;;;0.90;;
11016;SDS011;54687;50.800;6.772;2024-03-29T13:25:10;0.88;;;0.88;;
11016;SDS011;54687;50.800;6.772;2024-03-29T13:27:38;0.80;;;0.80;;
11016;SDS011;54687;50.800;6.772;2024-03-29T13:30:06;1.50;;;1.25;;
11016;SDS011;54687;50.800;6.772;2024-03-29T13:32:37;1.40;;;0.98;;
11016;SDS011;54687;50.800;6.772;2024-03-29T13:35:06;0.73;;;0.73;;
11016;SDS011;54687;50.800;6.772;2024-03-29T13:37:34;1.02;;;0.93;;
11016;SDS011;54687;50.800;6.772;2024-03-29T13:40:01;0.90;;;0.90;;
11016;SDS011;54687;50.800;6.772;2024-03-29T13:42:29;0.77;;;0.77;;
11016;SDS011;54687;50.800;6.772;2024-03-29T13:44:57;0.82;;;0.82;;
11016;SDS011;54687;50.800;6.772;2024-03-29T13:47:24;1.63;;;1.08;;
11016;SDS011;54687;50.800;6.772;2024-03-29T13:49:51;1.27;;;1.15;;
11016;SDS011;54687;50.800;6.772;2024-03-29T13:52:19;1.33;;;1.10;;
11016;SDS011;54687;50.800;6.772;2024-03-29T13:54:46;0.73;;;0.73;;
11016;SDS011;54687;50.800;6.772;2024-03-29T13:57:13;0.85;;;0.80;;
11016;SDS011;54687;50.800;6.772;2024-03-29T13:59:40;1.10;;;0.90;;
11016;SDS011;54687;50.800;6.772;2024-03-29T14:02:11;1.02;;;0.95;;
11016;SDS011;54687;50.800;6.772;2024-03-29T14:04:38;0.80;;;0.80;;
11016;SDS011;54687;50.800;6.772;2024-03-29T14:07:05;1.65;;;1.10;;
11016;SDS011;54687;50.800;6.772;2024-03-29T14:09:34;1.10;;;0.90;;
11016;SDS011;54687;50.800;6.772;2024-03-29T14:12:01;0.80;;;0.80;;
11016;SDS011;54687;50.800;6.772;2024-03-29T14:14:28;1.15;;;1.13;;
11016;SDS011;54687;50.800;6.772;2024-03-29T14:16:55;1.65;;;1.10;;
11016;SDS011;54687;50.800;6.772;2024-03-29T14:19:23;1.27;;;1.10;;
11016;SDS011;54687;50.800;6.772;2024-03-29T14:21:51;1.50;;;1.30;;
11016;SDS011;54687;50.800;6.772;2024-03-29T14:24:18;0.98;;;0.90;;
11016;SDS011;54687;50.800;6.772;2024-03-29T14:26:45;1.20;;;1.10;;
11016;SDS011;54687;50.800;6.772;2024-03-29T14:29:12;1.00;;;0.90;;
11016;SDS011;54687;50.800;6.772;2024-03-29T14:31:40;2.30;;;2.10;;
11016;SDS011;54687;50.800;6.772;2024-03-29T14:34:09;2.35;;;1.60;;
11016;SDS011;54687;50.800;6.772;2024-03-29T14:36:38;1.40;;;1.25;;
11016;SDS011;54687;50.800;6.772;2024-03-29T14:39:04;1.90;;;1.48;;
11016;SDS011;54687;50.800;6.772;2024-03-29T14:41:31;1.05;;;0.98;;
11016;SDS011;54687;50.800;6.772;2024-03-29T14:44:01;1.70;;;1.20;;
11016;SDS011;54687;50.800;6.772;2024-03-29T14:46:28;1.27;;;1.17;;
11016;SDS011;54687;50.800;6.772;2024-03-29T14:48:55;0.95;;;0.70;;
11016;SDS011;54687;50.800;6.772;2024-03-29T14:51:22;1.27;;;1.08;;